sensor_id;sensor_type;location;lat;lon;timestamp;pressure;altitude;pressure_sealevel;temperature;humidity
73981;BME280;62348;51.412;5.436;2023-02-01T00:02:23;101963.94;;;4.53;89.59
73981;BME280;62348;51.412;5.436;2023-02-01T00:04:49;101949.91;;;4.51;88.81
73981;BME280;62348;51.412;5.436;2023-02-01T00:07:14;101951.16;;;4.48;88.72
73981;BME280;62348;51.412;5.436;2023-02-01T00:09:39;101935.63;;;4.44;88.68
73981;BME280;62348;51.412;5.436;2023-02-01T00:12:05;101941.22;;;4.42;88.52
73981;BME280;62348;51.412;5.436;2023-02-01T00:14:30;101942.41;;;4.40;88.24
73981;BME280;62348;51.412;5.436;2023-02-01T00:17:04;101939.28;;;4.36;87.53
73981;BME280;62348;51.412;5.436;2023-02-01T00:19:29;101936.19;;;4.33;88.12
73981;BME280;62348;51.412;5.436;2023-02-01T00:21:55;101940.06;;;4.30;87.81
73981;BME280;62348;51.412;5.436;2023-02-01T00:24:20;101919.88;;;4.27;87.63
73981;BME280;62348;51.412;5.436;2023-02-01T00:26:45;101909.53;;;4.24;87.49
73981;BME280;62348;51.412;5.436;2023-02-01T00:29:16;101903.34;;;4.24;87.76
73981;BME280;62348;51.412;5.436;2023-02-01T00:31:42;101903.72;;;4.21;87.44
73981;BME280;62348;51.412;5.436;2023-02-01T00:34:14;101912.78;;;4.20;86.88
73981;BME280;62348;51.412;5.436;2023-02-01T00:36:40;101911.97;;;4.19;87.17
73981;BME280;62348;51.412;5.436;2023-02-01T00:39:06;101913.97;;;4.17;86.67
73981;BME280;62348;51.412;5.436;2023-02-01T00:41:32;101907.81;;;4.17;87.29
73981;BME280;62348;51.412;5.436;2023-02-01T00:43:57;101908.84;;;4.16;86.89
73981;BME280;62348;51.412;5.436;2023-02-01T00:46:23;101901.00;;;4.14;86.82
73981;BME280;62348;51.412;5.436;2023-02-01T00:48:49;101893.97;;;4.13;86.89
73981;BME280;62348;51.412;5.436;2023-02-01T00:51:19;101894.16;;;4.11;86.53
73981;BME280;62348;51.412;5.436;2023-02-01T00:53:44;101899.53;;;4.11;86.56
73981;BME280;62348;51.412;5.436;2023-02-01T00:56:10;101905.28;;;4.08;86.62
73981;BME280;62348;51.412;5.436;2023-02-01T00:58:36;101907.94;;;4.08;86.72
73981;BME280;62348;51.412;5.436;2023-02-01T01:03:30;101919.22;;;4.04;85.93
73981;BME280;62348;51.412;5.436;2023-02-01T01:05:59;101922.09;;;4.02;86.88
73981;BME280;62348;51.412;5.436;2023-02-01T01:08:24;101918.75;;;4.00;87.16
73981;BME280;62348;51.412;5.436;2023-02-01T01:10:50;101917.13;;;3.99;86.91
73981;BME280;62348;51.412;5.436;2023-02-01T01:13:15;101926.38;;;3.97;86.80
73981;BME280;62348;51.412;5.436;2023-02-01T01:15:41;101930.22;;;3.94;86.75
73981;BME280;62348;51.412;5.436;2023-02-01T01:18:07;101921.56;;;3.92;86.55
73981;BME280;62348;51.412;5.436;2023-02-01T01:20:37;101920.75;;;3.91;86.99
73981;BME280;62348;51.412;5.436;2023-02-01T01:23:03;101931.00;;;3.88;86.88
73981;BME280;62348;51.412;5.436;2023-02-01T01:25:29;101920.47;;;3.86;87.11
73981;BME280;62348;51.412;5.436;2023-02-01T01:27:54;101915.31;;;3.85;87.38
73981;BME280;62348;51.412;5.436;2023-02-01T01:30:20;101912.84;;;3.83;87.62
73981;BME280;62348;51.412;5.436;2023-02-01T01:32:45;101907.69;;;3.82;87.95
73981;BME280;62348;51.412;5.436;2023-02-01T01:35:11;101912.41;;;3.80;87.65
73981;BME280;62348;51.412;5.436;2023-02-01T01:37:36;101922.88;;;3.81;87.78
73981;BME280;62348;51.412;5.436;2023-02-01T01:40:03;101918.75;;;3.79;87.84
73981;BME280;62348;51.412;5.436;2023-02-01T01:42:29;101918.94;;;3.77;87.85
73981;BME280;62348;51.412;5.436;2023-02-01T01:45:19;101911.94;;;3.76;88.03
73981;BME280;62348;51.412;5.436;2023-02-01T01:47:48;101921.84;;;3.76;88.44
73981;BME280;62348;51.412;5.436;2023-02-01T01:50:18;101931.03;;;3.73;88.73
73981;BME280;62348;51.412;5.436;2023-02-01T01:52:48;101930.41;;;3.71;88.65
73981;BME280;62348;51.412;5.436;2023-02-01T01:55:17;101925.25;;;3.69;88.45
73981;BME280;62348;51.412;5.436;2023-02-01T01:57:47;101929.13;;;3.67;89.24
73981;BME280;62348;51.412;5.436;2023-02-01T02:00:17;101922.97;;;3.66;88.88
73981;BME280;62348;51.412;5.436;2023-02-01T02:02:45;101925.81;;;3.65;89.17
73981;BME280;62348;51.412;5.436;2023-02-01T02:05:12;101931.34;;;3.63;89.24
73981;BME280;62348;51.412;5.436;2023-02-01T02:07:45;101932.34;;;3.62;89.55
73981;BME280;62348;51.412;5.436;2023-02-01T02:10:13;101933.19;;;3.63;89.60
73981;BME280;62348;51.412;5.436;2023-02-01T02:12:41;101925.34;;;3.61;89.93
73981;BME280;62348;51.412;5.436;2023-02-01T02:15:12;101922.03;;;3.59;90.21
73981;BME280;62348;51.412;5.436;2023-02-01T02:33:56;101888.91;;;3.60;90.64
73981;BME280;62348;51.412;5.436;2023-02-01T02:39:24;101867.16;;;3.63;91.24
73981;BME280;62348;51.412;5.436;2023-02-01T02:44:51;101881.34;;;3.64;91.05
73981;BME280;62348;51.412;5.436;2023-02-01T02:47:52;101875.81;;;3.65;90.92
73981;BME280;62348;51.412;5.436;2023-02-01T02:53:18;101867.41;;;3.68;90.82
73981;BME280;62348;51.412;5.436;2023-02-01T02:56:06;101876.25;;;3.69;90.94
73981;BME280;62348;51.412;5.436;2023-02-01T02:58:52;101878.94;;;3.69;90.74
73981;BME280;62348;51.412;5.436;2023-02-01T03:01:37;101872.59;;;3.70;90.79
73981;BME280;62348;51.412;5.436;2023-02-01T03:04:23;101876.09;;;3.70;90.97
73981;BME280;62348;51.412;5.436;2023-02-01T03:06:49;101870.72;;;3.70;90.66
73981;BME280;62348;51.412;5.436;2023-02-01T03:11:53;101869.50;;;3.73;90.80
73981;BME280;62348;51.412;5.436;2023-02-01T03:14:41;101863.34;;;3.72;90.46
73981;BME280;62348;51.412;5.436;2023-02-01T03:17:13;101853.28;;;3.75;90.60
73981;BME280;62348;51.412;5.436;2023-02-01T03:19:43;101860.50;;;3.74;90.42
73981;BME280;62348;51.412;5.436;2023-02-01T03:22:17;101858.81;;;3.73;90.34
73981;BME280;62348;51.412;5.436;2023-02-01T03:24:49;101858.63;;;3.75;90.23
73981;BME280;62348;51.412;5.436;2023-02-01T03:29:49;101869.50;;;3.73;90.29
73981;BME280;62348;51.412;5.436;2023-02-01T03:32:16;101866.03;;;3.72;90.35
73981;BME280;62348;51.412;5.436;2023-02-01T03:34:42;101862.53;;;3.72;90.12
73981;BME280;62348;51.412;5.436;2023-02-01T03:37:15;101872.59;;;3.70;89.97
73981;BME280;62348;51.412;5.436;2023-02-01T03:42:33;101861.88;;;3.70;90.61
73981;BME280;62348;51.412;5.436;2023-02-01T03:45:20;101864.97;;;3.74;90.77
73981;BME280;62348;51.412;5.436;2023-02-01T03:47:51;101866.19;;;3.71;90.28
73981;BME280;62348;51.412;5.436;2023-02-01T03:50:20;101848.69;;;3.68;90.57
73981;BME280;62348;51.412;5.436;2023-02-01T03:52:52;101861.88;;;3.70;90.56
73981;BME280;62348;51.412;5.436;2023-02-01T03:55:21;101867.41;;;3.68;90.46
73981;BME280;62348;51.412;5.436;2023-02-01T03:58:06;101866.38;;;3.69;90.50
73981;BME280;62348;51.412;5.436;2023-02-01T04:00:32;101860.41;;;3.67;90.71
73981;BME280;62348;51.412;5.436;2023-02-01T04:02:57;101857.72;;;3.67;90.82
73981;BME280;62348;51.412;5.436;2023-02-01T04:05:23;101852.56;;;3.66;90.51
73981;BME280;62348;51.412;5.436;2023-02-01T04:07:49;101858.75;;;3.66;90.51
73981;BME280;62348;51.412;5.436;2023-02-01T04:10:14;101854.41;;;3.65;90.75
73981;BME280;62348;51.412;5.436;2023-02-01T04:12:40;101859.75;;;3.65;90.66
73981;BME280;62348;51.412;5.436;2023-02-01T04:15:06;101860.81;;;3.64;90.78
73981;BME280;62348;51.412;5.436;2023-02-01T04:17:32;101848.25;;;3.65;90.80
73981;BME280;62348;51.412;5.436;2023-02-01T04:19:57;101840.41;;;3.63;90.59
73981;BME280;62348;51.412;5.436;2023-02-01T04:22:23;101837.53;;;3.65;91.05
73981;BME280;62348;51.412;5.436;2023-02-01T04:24:48;101834.88;;;3.65;90.94
73981;BME280;62348;51.412;5.436;2023-02-01T04:27:14;101827.84;;;3.64;90.80
73981;BME280;62348;51.412;5.436;2023-02-01T04:29:39;101837.53;;;3.65;91.12
73981;BME280;62348;51.412;5.436;2023-02-01T04:32:05;101834.88;;;3.65;90.93
73981;BME280;62348;51.412;5.436;2023-02-01T04:34:30;101843.91;;;3.64;91.04
73981;BME280;62348;51.412;5.436;2023-02-01T04:36:56;101848.44;;;3.63;91.02
73981;BME280;62348;51.412;5.436;2023-02-01T04:39:21;101852.09;;;3.62;91.03
73981;BME280;62348;51.412;5.436;2023-02-01T04:41:46;101852.31;;;3.61;90.80
73981;BME280;62348;51.412;5.436;2023-02-01T04:44:16;101845.31;;;3.60;90.83
73981;BME280;62348;51.412;5.436;2023-02-01T04:46:43;101851.69;;;3.59;90.70
73981;BME280;62348;51.412;5.436;2023-02-01T04:49:10;101845.69;;;3.57;90.88
73981;BME280;62348;51.412;5.436;2023-02-01T04:51:35;101848.56;;;3.55;90.95
73981;BME280;62348;51.412;5.436;2023-02-01T04:54:01;101853.06;;;3.55;90.96
73981;BME280;62348;51.412;5.436;2023-02-01T04:56:26;101855.94;;;3.53;91.06
73981;BME280;62348;51.412;5.436;2023-02-01T04:58:52;101848.94;;;3.52;91.05
73981;BME280;62348;51.412;5.436;2023-02-01T05:01:17;101858.16;;;3.49;90.76
73981;BME280;62348;51.412;5.436;2023-02-01T05:03:43;101857.97;;;3.51;91.41
73981;BME280;62348;51.412;5.436;2023-02-01T05:06:08;101856.31;;;3.50;90.96
73981;BME280;62348;51.412;5.436;2023-02-01T05:08:34;101871.91;;;3.46;90.96
73981;BME280;62348;51.412;5.436;2023-02-01T05:10:59;101870.91;;;3.47;91.04
73981;BME280;62348;51.412;5.436;2023-02-01T05:13:27;101877.44;;;3.45;91.08
73981;BME280;62348;51.412;5.436;2023-02-01T05:16:11;101866.75;;;3.45;91.18
73981;BME280;62348;51.412;5.436;2023-02-01T05:18:37;101868.78;;;3.43;91.00
73981;BME280;62348;51.412;5.436;2023-02-01T05:21:03;101860.75;;;3.43;91.10
73981;BME280;62348;51.412;5.436;2023-02-01T05:23:28;101864.47;;;3.42;91.35
73981;BME280;62348;51.412;5.436;2023-02-01T05:25:59;101859.13;;;3.42;91.28
73981;BME280;62348;51.412;5.436;2023-02-01T05:28:25;101864.66;;;3.40;91.43
73981;BME280;62348;51.412;5.436;2023-02-01T05:30:50;101857.44;;;3.41;91.29
73981;BME280;62348;51.412;5.436;2023-02-01T05:33:15;101839.94;;;3.38;91.47
73981;BME280;62348;51.412;5.436;2023-02-01T05:35:41;101851.28;;;3.40;91.79
73981;BME280;62348;51.412;5.436;2023-02-01T05:38:06;101840.41;;;3.42;91.65
73981;BME280;62348;51.412;5.436;2023-02-01T05:40:32;101839.38;;;3.43;91.77
73981;BME280;62348;51.412;5.436;2023-02-01T05:42:57;101833.66;;;3.46;91.84
73981;BME280;62348;51.412;5.436;2023-02-01T05:45:22;101836.97;;;3.48;91.90
73981;BME280;62348;51.412;5.436;2023-02-01T05:47:48;101849.28;;;3.49;91.97
73981;BME280;62348;51.412;5.436;2023-02-01T05:50:13;101849.97;;;3.51;92.00
73981;BME280;62348;51.412;5.436;2023-02-01T05:52:39;101850.38;;;3.55;92.04
73981;BME280;62348;51.412;5.436;2023-02-01T05:55:04;101857.41;;;3.56;91.64
73981;BME280;62348;51.412;5.436;2023-02-01T05:57:30;101853.50;;;3.58;92.28
73981;BME280;62348;51.412;5.436;2023-02-01T05:59:56;101865.69;;;3.61;92.07
73981;BME280;62348;51.412;5.436;2023-02-01T06:02:21;101859.31;;;3.62;91.90
73981;BME280;62348;51.412;5.436;2023-02-01T06:04:49;101859.31;;;3.62;92.09
73981;BME280;62348;51.412;5.436;2023-02-01T06:07:14;101860.59;;;3.66;91.76
73981;BME280;62348;51.412;5.436;2023-02-01T06:09:40;101857.09;;;3.65;91.80
73981;BME280;62348;51.412;5.436;2023-02-01T06:12:05;101861.44;;;3.66;92.08
73981;BME280;62348;51.412;5.436;2023-02-01T06:14:31;101856.91;;;3.67;92.07
73981;BME280;62348;51.412;5.436;2023-02-01T06:16:56;101856.91;;;3.67;91.76
73981;BME280;62348;51.412;5.436;2023-02-01T06:19:22;101850.75;;;3.66;91.86
73981;BME280;62348;51.412;5.436;2023-02-01T06:21:48;101851.38;;;3.68;92.09
73981;BME280;62348;51.412;5.436;2023-02-01T06:24:14;101861.44;;;3.66;91.87
73981;BME280;62348;51.412;5.436;2023-02-01T06:26:39;101864.75;;;3.68;92.04
73981;BME280;62348;51.412;5.436;2023-02-01T06:29:06;101865.56;;;3.69;92.21
73981;BME280;62348;51.412;5.436;2023-02-01T06:31:32;101870.56;;;3.72;92.00
73981;BME280;62348;51.412;5.436;2023-02-01T06:33:57;101869.69;;;3.71;92.18
73981;BME280;62348;51.412;5.436;2023-02-01T06:36:23;101874.22;;;3.71;92.06
73981;BME280;62348;51.412;5.436;2023-02-01T06:38:48;101869.69;;;3.71;91.74
73981;BME280;62348;51.412;5.436;2023-02-01T06:41:14;101871.75;;;3.69;91.68
73981;BME280;62348;51.412;5.436;2023-02-01T06:43:39;101878.75;;;3.70;92.06
73981;BME280;62348;51.412;5.436;2023-02-01T06:46:07;101876.44;;;3.67;91.94
73981;BME280;62348;51.412;5.436;2023-02-01T06:48:34;101877.50;;;3.66;92.33
73981;BME280;62348;51.412;5.436;2023-02-01T06:51:00;101881.81;;;3.67;92.30
73981;BME280;62348;51.412;5.436;2023-02-01T06:53:27;101888.81;;;3.68;92.28
73981;BME280;62348;51.412;5.436;2023-02-01T06:55:59;101880.78;;;3.68;92.22
73981;BME280;62348;51.412;5.436;2023-02-01T06:58:31;101880.63;;;3.70;92.39
73981;BME280;62348;51.412;5.436;2023-02-01T07:00:57;101877.09;;;3.69;92.45
73981;BME280;62348;51.412;5.436;2023-02-01T07:03:22;101885.75;;;3.71;92.40
73981;BME280;62348;51.412;5.436;2023-02-01T07:05:48;101879.75;;;3.69;92.36
73981;BME280;62348;51.412;5.436;2023-02-01T07:08:13;101880.63;;;3.70;92.50
73981;BME280;62348;51.412;5.436;2023-02-01T07:10:38;101890.47;;;3.69;92.23
73981;BME280;62348;51.412;5.436;2023-02-01T07:13:04;101884.09;;;3.70;92.70
73981;BME280;62348;51.412;5.436;2023-02-01T07:15:29;101881.44;;;3.70;92.36
73981;BME280;62348;51.412;5.436;2023-02-01T07:17:55;101880.63;;;3.70;92.22
73981;BME280;62348;51.412;5.436;2023-02-01T07:20:21;101882.44;;;3.69;92.33
73981;BME280;62348;51.412;5.436;2023-02-01T07:22:46;101877.72;;;3.71;92.42
73981;BME280;62348;51.412;5.436;2023-02-01T07:25:12;101873.59;;;3.69;92.49
73981;BME280;62348;51.412;5.436;2023-02-01T07:27:37;101870.72;;;3.70;92.49
73981;BME280;62348;51.412;5.436;2023-02-01T07:30:06;101881.25;;;3.72;92.60
73981;BME280;62348;51.412;5.436;2023-02-01T07:32:32;101879.41;;;3.72;92.52
73981;BME280;62348;51.412;5.436;2023-02-01T07:34:58;101879.59;;;3.71;92.21
73981;BME280;62348;51.412;5.436;2023-02-01T07:37:23;101884.94;;;3.71;92.03
73981;BME280;62348;51.412;5.436;2023-02-01T07:39:52;101887.78;;;3.69;92.19
73981;BME280;62348;51.412;5.436;2023-02-01T07:42:18;101886.97;;;3.69;92.00
73981;BME280;62348;51.412;5.436;2023-02-01T07:44:43;101899.53;;;3.68;92.17
73981;BME280;62348;51.412;5.436;2023-02-01T07:47:09;101897.84;;;3.67;92.13
73981;BME280;62348;51.412;5.436;2023-02-01T07:49:34;101898.88;;;3.66;92.26
73981;BME280;62348;51.412;5.436;2023-02-01T07:52:00;101893.53;;;3.66;92.17
73981;BME280;62348;51.412;5.436;2023-02-01T07:54:25;101902.56;;;3.65;91.97
73981;BME280;62348;51.412;5.436;2023-02-01T07:56:51;101894.53;;;3.65;92.15
73981;BME280;62348;51.412;5.436;2023-02-01T07:59:16;101891.03;;;3.65;92.31
73981;BME280;62348;51.412;5.436;2023-02-01T08:01:41;101899.88;;;3.65;92.10
73981;BME280;62348;51.412;5.436;2023-02-01T08:04:09;101889.19;;;3.65;92.26
73981;BME280;62348;51.412;5.436;2023-02-01T08:06:35;101889.81;;;3.67;92.40
73981;BME280;62348;51.412;5.436;2023-02-01T08:09:02;101893.13;;;3.69;91.96
73981;BME280;62348;51.412;5.436;2023-02-01T08:11:27;101900.97;;;3.71;92.07
73981;BME280;62348;51.412;5.436;2023-02-01T08:13:53;101907.16;;;3.71;91.99
73981;BME280;62348;51.412;5.436;2023-02-01T08:16:20;101914.81;;;3.75;91.83
73981;BME280;62348;51.412;5.436;2023-02-01T08:18:46;101921.84;;;3.76;91.75
73981;BME280;62348;51.412;5.436;2023-02-01T08:21:20;101921.44;;;3.79;92.12
73981;BME280;62348;51.412;5.436;2023-02-01T08:23:47;101927.41;;;3.81;91.91
73981;BME280;62348;51.412;5.436;2023-02-01T08:26:21;101917.34;;;3.83;91.57
73981;BME280;62348;51.412;5.436;2023-02-01T08:28:58;101911.63;;;3.86;91.76
73981;BME280;62348;51.412;5.436;2023-02-01T08:31:27;101913.28;;;3.87;91.65
73981;BME280;62348;51.412;5.436;2023-02-01T08:33:54;101909.78;;;3.86;91.45
73981;BME280;62348;51.412;5.436;2023-02-01T08:36:21;101915.41;;;3.91;91.52
73981;BME280;62348;51.412;5.436;2023-02-01T08:38:47;101923.88;;;3.95;91.45
73981;BME280;62348;51.412;5.436;2023-02-01T08:41:15;101919.16;;;3.97;91.52
73981;BME280;62348;51.412;5.436;2023-02-01T08:43:41;101926.41;;;4.03;91.79
73981;BME280;62348;51.412;5.436;2023-02-01T08:46:07;101932.03;;;4.08;91.40
73981;BME280;62348;51.412;5.436;2023-02-01T08:48:33;101926.28;;;4.11;91.19
73981;BME280;62348;51.412;5.436;2023-02-01T08:51:07;101927.78;;;4.14;91.10
73981;BME280;62348;51.412;5.436;2023-02-01T08:53:33;101921.19;;;4.17;90.94
73981;BME280;62348;51.412;5.436;2023-02-01T08:55:59;101921.00;;;4.18;90.58
73981;BME280;62348;51.412;5.436;2023-02-01T08:58:26;101920.63;;;4.21;90.82
73981;BME280;62348;51.412;5.436;2023-02-01T09:00:51;101915.50;;;4.26;90.64
73981;BME280;62348;51.412;5.436;2023-02-01T09:03:16;101908.97;;;4.29;91.36
73981;BME280;62348;51.412;5.436;2023-02-01T09:05:42;101899.72;;;4.32;91.42
73981;BME280;62348;51.412;5.436;2023-02-01T09:08:08;101905.50;;;4.35;91.08
73981;BME280;62348;51.412;5.436;2023-02-01T09:10:35;101902.47;;;4.38;91.20
73981;BME280;62348;51.412;5.436;2023-02-01T09:13:01;101896.50;;;4.43;90.87
73981;BME280;62348;51.412;5.436;2023-02-01T09:15:26;101884.38;;;4.47;90.84
73981;BME280;62348;51.412;5.436;2023-02-01T09:17:52;101883.16;;;4.49;90.77
73981;BME280;62348;51.412;5.436;2023-02-01T09:20:17;101879.91;;;4.54;90.92
73981;BME280;62348;51.412;5.436;2023-02-01T09:22:45;101881.59;;;4.62;90.79
73981;BME280;62348;51.412;5.436;2023-02-01T09:25:10;101872.59;;;4.69;90.76
73981;BME280;62348;51.412;5.436;2023-02-01T09:27:36;101873.06;;;4.80;90.04
73981;BME280;62348;51.412;5.436;2023-02-01T09:30:03;101877.41;;;4.87;90.05
73981;BME280;62348;51.412;5.436;2023-02-01T09:32:28;101884.69;;;4.94;89.43
73981;BME280;62348;51.412;5.436;2023-02-01T09:34:54;101887.41;;;5.00;89.52
73981;BME280;62348;51.412;5.436;2023-02-01T09:37:19;101868.25;;;5.03;89.09
73981;BME280;62348;51.412;5.436;2023-02-01T09:39:45;101860.63;;;5.07;88.83
73981;BME280;62348;51.412;5.436;2023-02-01T09:42:25;101871.38;;;5.14;89.14
73981;BME280;62348;51.412;5.436;2023-02-01T09:45:06;101878.03;;;5.24;88.34
73981;BME280;62348;51.412;5.436;2023-02-01T09:47:42;101884.44;;;5.30;88.05
73981;BME280;62348;51.412;5.436;2023-02-01T09:50:15;101874.16;;;5.34;87.95
73981;BME280;62348;51.412;5.436;2023-02-01T09:52:55;101879.75;;;5.39;87.91
73981;BME280;62348;51.412;5.436;2023-02-01T09:55:38;101890.88;;;5.42;87.56
73981;BME280;62348;51.412;5.436;2023-02-01T10:01:02;101868.00;;;5.46;86.01
73981;BME280;62348;51.412;5.436;2023-02-01T10:03:30;101877.69;;;5.47;86.20
73981;BME280;62348;51.412;5.436;2023-02-01T10:11:08;101864.94;;;5.63;85.69
73981;BME280;62348;51.412;5.436;2023-02-01T10:16:29;101870.75;;;5.80;84.55
73981;BME280;62348;51.412;5.436;2023-02-01T10:19:34;101872.03;;;5.91;85.42
73981;BME280;62348;51.412;5.436;2023-02-01T10:22:09;101888.19;;;6.04;84.35
73981;BME280;62348;51.412;5.436;2023-02-01T10:24:54;101890.47;;;6.14;84.64
73981;BME280;62348;51.412;5.436;2023-02-01T10:27:37;101890.25;;;6.22;84.04
73981;BME280;62348;51.412;5.436;2023-02-01T10:30:23;101916.50;;;6.33;83.62
73981;BME280;62348;51.412;5.436;2023-02-01T10:32:54;101900.78;;;6.37;82.01
73981;BME280;62348;51.412;5.436;2023-02-01T10:35:34;101910.94;;;6.41;81.66
73981;BME280;62348;51.412;5.436;2023-02-01T10:38:02;101908.25;;;6.41;81.84
73981;BME280;62348;51.412;5.436;2023-02-01T10:40:28;101911.13;;;6.47;81.27
73981;BME280;62348;51.412;5.436;2023-02-01T10:42:59;101910.09;;;6.48;81.70
73981;BME280;62348;51.412;5.436;2023-02-01T10:45:27;101909.28;;;6.47;80.55
73981;BME280;62348;51.412;5.436;2023-02-01T10:47:55;101920.66;;;6.49;80.15
73981;BME280;62348;51.412;5.436;2023-02-01T10:53:00;101901.22;;;6.47;79.89
73981;BME280;62348;51.412;5.436;2023-02-01T10:55:56;101899.78;;;6.51;80.80
73981;BME280;62348;51.412;5.436;2023-02-01T10:58:32;101900.59;;;6.52;79.94
73981;BME280;62348;51.412;5.436;2023-02-01T11:01:06;101889.44;;;6.55;78.77
73981;BME280;62348;51.412;5.436;2023-02-01T11:06:26;101896.84;;;6.59;80.96
73981;BME280;62348;51.412;5.436;2023-02-01T11:09:39;101896.66;;;6.61;79.77
73981;BME280;62348;51.412;5.436;2023-02-01T11:14:19;101875.78;;;6.63;78.88
73981;BME280;62348;51.412;5.436;2023-02-01T11:16:59;101867.31;;;6.59;79.54
73981;BME280;62348;51.412;5.436;2023-02-01T11:19:26;101862.75;;;6.60;78.28
73981;BME280;62348;51.412;5.436;2023-02-01T11:21:54;101870.19;;;6.58;78.47
73981;BME280;62348;51.412;5.436;2023-02-01T11:24:31;101848.69;;;6.58;78.53
73981;BME280;62348;51.412;5.436;2023-02-01T11:27:00;101848.91;;;6.56;78.18
73981;BME280;62348;51.412;5.436;2023-02-01T11:29:34;101844.78;;;6.54;78.16
73981;BME280;62348;51.412;5.436;2023-02-01T11:32:01;101847.66;;;6.52;78.43
73981;BME280;62348;51.412;5.436;2023-02-01T11:34:39;101842.28;;;6.52;78.54
73981;BME280;62348;51.412;5.436;2023-02-01T11:37:17;101842.28;;;6.52;78.18
73981;BME280;62348;51.412;5.436;2023-02-01T11:39:56;101828.66;;;6.54;77.62
73981;BME280;62348;51.412;5.436;2023-02-01T11:42:23;101839.41;;;6.54;77.36
73981;BME280;62348;51.412;5.436;2023-02-01T11:44:48;101841.88;;;6.55;77.93
73981;BME280;62348;51.412;5.436;2023-02-01T11:47:24;101847.66;;;6.59;77.11
73981;BME280;62348;51.412;5.436;2023-02-01T11:49:55;101832.97;;;6.61;76.89
73981;BME280;62348;51.412;5.436;2023-02-01T12:00:19;101831.97;;;6.62;77.17
73981;BME280;62348;51.412;5.436;2023-02-01T12:05:46;101838.16;;;6.70;77.00
73981;BME280;62348;51.412;5.436;2023-02-01T12:11:21;101816.84;;;6.68;77.01
73981;BME280;62348;51.412;5.436;2023-02-01T12:14:44;101834.63;;;6.69;77.33
73981;BME280;62348;51.412;5.436;2023-02-01T12:19:47;101825.72;;;6.69;77.03
73981;BME280;62348;51.412;5.436;2023-02-01T12:33:21;101808.78;;;6.61;77.15
73981;BME280;62348;51.412;5.436;2023-02-01T12:36:12;101814.78;;;6.63;77.85
73981;BME280;62348;51.412;5.436;2023-02-01T12:39:02;101817.25;;;6.65;77.93
73981;BME280;62348;51.412;5.436;2023-02-01T12:41:45;101820.78;;;6.65;77.99
73981;BME280;62348;51.412;5.436;2023-02-01T12:50:20;101818.28;;;6.71;77.86
73981;BME280;62348;51.412;5.436;2023-02-01T12:52:48;101812.69;;;6.72;78.59
73981;BME280;62348;51.412;5.436;2023-02-01T12:58:18;101814.94;;;6.75;78.20
73981;BME280;62348;51.412;5.436;2023-02-01T13:00:59;101809.16;;;6.78;77.62
73981;BME280;62348;51.412;5.436;2023-02-01T13:03:41;101809.16;;;6.78;77.94
73981;BME280;62348;51.412;5.436;2023-02-01T13:06:21;101803.56;;;6.80;77.67
73981;BME280;62348;51.412;5.436;2023-02-01T13:11:42;101799.84;;;6.81;77.21
73981;BME280;62348;51.412;5.436;2023-02-01T13:14:33;101807.28;;;6.86;77.61
73981;BME280;62348;51.412;5.436;2023-02-01T13:17:09;101799.00;;;6.87;77.91
73981;BME280;62348;51.412;5.436;2023-02-01T13:22:30;101792.16;;;6.84;77.79
73981;BME280;62348;51.412;5.436;2023-02-01T13:24:59;101796.72;;;6.84;77.94
73981;BME280;62348;51.412;5.436;2023-02-01T13:27:28;101790.09;;;6.87;77.58
73981;BME280;62348;51.412;5.436;2023-02-01T13:32:47;101787.00;;;6.90;77.71
73981;BME280;62348;51.412;5.436;2023-02-01T13:43:49;101792.34;;;6.96;78.13
73981;BME280;62348;51.412;5.436;2023-02-01T13:46:16;101803.47;;;7.00;77.57
73981;BME280;62348;51.412;5.436;2023-02-01T13:48:49;101800.38;;;7.03;77.71
73981;BME280;62348;51.412;5.436;2023-02-01T13:51:18;101810.28;;;7.09;76.61
73981;BME280;62348;51.412;5.436;2023-02-01T13:53:55;101806.97;;;7.07;76.95
73981;BME280;62348;51.412;5.436;2023-02-01T13:56:22;101804.50;;;7.06;76.87
73981;BME280;62348;51.412;5.436;2023-02-01T13:58:49;101795.41;;;7.07;76.61
73981;BME280;62348;51.412;5.436;2023-02-01T14:03:53;101802.03;;;7.04;77.32
73981;BME280;62348;51.412;5.436;2023-02-01T14:16:40;101817.78;;;7.00;77.29
73981;BME280;62348;51.412;5.436;2023-02-01T14:19:29;101827.28;;;7.03;77.64
73981;BME280;62348;51.412;5.436;2023-02-01T14:24:41;101824.63;;;6.96;77.85
73981;BME280;62348;51.412;5.436;2023-02-01T14:27:28;101826.88;;;6.99;78.03
73981;BME280;62348;51.412;5.436;2023-02-01T14:29:58;101822.97;;;6.95;78.16
73981;BME280;62348;51.412;5.436;2023-02-01T14:32:35;101818.41;;;6.96;78.36
73981;BME280;62348;51.412;5.436;2023-02-01T14:35:06;101819.66;;;6.93;78.28
73981;BME280;62348;51.412;5.436;2023-02-01T14:37:35;101818.59;;;6.94;78.08
73981;BME280;62348;51.412;5.436;2023-02-01T14:47:54;101820.06;;;6.90;78.42
73981;BME280;62348;51.412;5.436;2023-02-01T14:53:09;101829.19;;;6.89;78.64
73981;BME280;62348;51.412;5.436;2023-02-01T14:55:44;101825.91;;;6.87;79.04
73981;BME280;62348;51.412;5.436;2023-02-01T15:01:04;101820.94;;;6.84;78.85
73981;BME280;62348;51.412;5.436;2023-02-01T15:05:59;101836.44;;;6.82;79.41
73981;BME280;62348;51.412;5.436;2023-02-01T15:08:31;101841.63;;;6.83;79.38
73981;BME280;62348;51.412;5.436;2023-02-01T15:11:00;101837.06;;;6.84;78.80
73981;BME280;62348;51.412;5.436;2023-02-01T15:13:28;101835.19;;;6.84;78.90
73981;BME280;62348;51.412;5.436;2023-02-01T15:16:21;101834.97;;;6.86;79.31
73981;BME280;62348;51.412;5.436;2023-02-01T15:18:48;101838.31;;;6.81;79.03
73981;BME280;62348;51.412;5.436;2023-02-01T15:21:21;101841.00;;;6.81;79.11
73981;BME280;62348;51.412;5.436;2023-02-01T15:23:46;101847.19;;;6.82;79.24
73981;BME280;62348;51.412;5.436;2023-02-01T15:26:30;101834.56;;;6.82;79.65
73981;BME280;62348;51.412;5.436;2023-02-01T15:28:57;101843.09;;;6.79;79.07
73981;BME280;62348;51.412;5.436;2023-02-01T15:31:34;101848.88;;;6.83;79.32
73981;BME280;62348;51.412;5.436;2023-02-01T15:34:00;101845.97;;;6.78;79.48